Time;durP1;ratioP1;P1;durP2;ratioP2;P2;SDS_P1;SDS_P2;PMS_P1;PMS_P2;Temp;Humidity;BMP_temperature;BMP_pressure;BME280_temperature;BME280_humidity;BME280_pressure;Samples;Min_cycle;Max_cycle;Signal;HPM_P1;HPM_P2
2022/10/11 00:02:26;;;;;;;5.77;3.20;;;18.10;98.80;;;18.45;66.05;99159.06;4967607;28;114313;-69
2022/10/11 00:04:52;;;;;;;6.40;3.47;;;18.00;98.70;;;18.45;66.03;99164.66;4954641;28;114071;-70
2022/10/11 00:07:19;;;;;;;6.83;3.50;;;18.00;98.70;;;18.44;66.12;99174.22;4968313;28;124454;-69
2022/10/11 00:09:46;;;;;;;5.30;3.00;;;18.10;98.80;;;18.43;66.10;99171.78;4952615;28;123320;-70
2022/10/11 00:12:12;;;;;;;5.23;2.70;;;18.00;98.70;;;18.42;66.13;99167.34;4960076;28;114974;-72
2022/10/11 00:14:39;;;;;;;7.63;2.90;;;18.00;98.70;;;18.39;65.96;99166.09;4968274;28;115234;-71
2022/10/11 00:17:06;;;;;;;8.80;3.07;;;18.00;98.70;;;18.39;66.09;99159.69;4966229;28;123995;-71
2022/10/11 00:19:33;;;;;;;4.17;2.30;;;18.00;98.80;;;18.37;66.26;99168.41;4971080;28;124265;-71
2022/10/11 00:22:00;;;;;;;5.67;2.50;;;17.90;98.80;;;18.35;66.21;99173.56;4961600;28;114161;-70
2022/10/11 00:24:26;;;;;;;4.10;2.60;;;17.90;98.80;;;18.32;66.12;99169.50;4963672;28;114015;-70
2022/10/11 00:26:53;;;;;;;4.83;2.40;;;17.90;98.80;;;18.30;66.08;99177.44;4957257;28;124459;-71
2022/10/11 00:29:19;;;;;;;6.10;2.90;;;17.90;98.70;;;18.27;65.98;99171.75;4971358;28;122851;-70
2022/10/11 00:31:46;;;;;;;11.80;3.70;;;17.80;98.70;;;18.25;66.10;99182.47;4968015;28;114704;-70
2022/10/11 00:34:14;;;;;;;9.03;3.83;;;17.80;98.70;;;18.21;66.13;99175.94;4967198;28;113929;-71
2022/10/11 00:36:40;;;;;;;3.87;2.20;;;17.80;98.70;;;18.18;66.17;99177.44;4966021;28;124741;-71
2022/10/11 00:39:07;;;;;;;5.00;2.93;;;17.80;98.70;;;18.16;66.13;99174.22;4954814;28;123897;-70
2022/10/11 00:41:33;;;;;;;8.27;4.20;;;17.70;98.70;;;18.13;66.12;99162.91;4968385;28;114443;-70
2022/10/11 00:44:13;;;;;;;7.40;3.37;;;17.70;98.70;;;18.09;66.16;99174.81;4969200;28;114219;-71
2022/10/11 00:46:44;;;;;;;7.10;2.80;;;17.70;98.70;;;18.08;66.13;99178.78;4958133;28;124076;-71
2022/10/11 00:49:29;;;;;;;4.67;3.00;;;17.60;98.70;;;18.03;66.13;99176.22;4954477;28;123924;-71
2022/10/11 00:52:06;;;;;;;5.27;2.67;;;17.60;98.70;;;17.99;66.04;99177.28;4956542;28;116332;-70
2022/10/11 00:54:36;;;;;;;6.67;2.90;;;17.60;98.70;;;17.95;66.16;99179.97;4956998;28;113884;-71
2022/10/11 00:57:09;;;;;;;5.00;2.80;;;17.60;98.70;;;17.94;66.22;99181.13;4959840;28;124830;-71
2022/10/11 00:59:42;;;;;;;4.80;2.70;;;17.60;98.80;;;17.94;66.34;99183.91;4966014;28;123628;-71
2022/10/11 01:02:12;;;;;;;7.17;2.70;;;17.50;98.80;;;17.92;66.36;99186.28;4967388;28;115471;-70
2022/10/11 01:04:40;;;;;;;3.90;2.50;;;17.50;98.80;;;17.90;66.06;99179.41;4963034;28;115013;-71
2022/10/11 01:07:08;;;;;;;6.20;3.23;;;17.40;98.80;;;17.90;66.35;99188.59;4966699;28;124048;-71
2022/10/11 01:09:34;;;;;;;9.03;2.90;;;17.50;98.90;;;17.88;66.34;99185.34;4947816;28;122663;-71
2022/10/11 01:12:10;;;;;;;4.53;3.00;;;17.40;98.80;;;17.87;66.48;99183.72;4970440;28;113594;-70
2022/10/11 01:15:06;;;;;;;7.83;3.37;;;17.40;98.80;;;17.82;66.12;99181.97;4967572;28;114175;-71
2022/10/11 01:17:52;;;;;;;6.80;4.00;;;17.40;98.80;;;17.72;66.08;99178.81;4953634;28;123986;-71
2022/10/11 01:20:53;;;;;;;5.47;3.07;;;17.30;98.60;;;17.60;66.26;99183.25;4962909;28;124202;-70
2022/10/11 01:23:49;;;;;;;9.90;3.70;;;17.30;98.60;;;17.50;66.37;99180.91;4967988;28;113512;-71
2022/10/11 01:26:53;;;;;;;15.53;3.60;;;17.20;98.60;;;17.39;66.57;99179.75;4962948;28;114532;-71
2022/10/11 01:29:54;;;;;;;7.07;3.57;;;17.10;98.60;;;17.33;66.82;99187.56;4968860;28;123831;-72
2022/10/11 01:33:06;;;;;;;9.97;2.90;;;17.00;98.60;;;17.22;66.66;99189.97;4957195;28;124713;-70
2022/10/11 01:35:46;;;;;;;7.17;3.00;;;17.00;98.70;;;17.17;66.95;99193.00;4952908;28;113474;-71
2022/10/11 01:38:46;;;;;;;8.57;3.97;;;16.90;98.70;;;17.11;66.95;99199.13;4966945;28;113910;-71
2022/10/11 01:41:30;;;;;;;6.47;2.87;;;16.80;98.70;;;17.12;66.91;99198.81;4965314;28;124595;-71
2022/10/11 01:44:00;;;;;;;8.70;2.80;;;16.80;98.80;;;17.12;67.05;99193.22;4965869;28;123625;-70
2022/10/11 01:46:28;;;;;;;6.30;3.30;;;16.80;98.90;;;17.15;66.88;99191.72;4950238;28;113701;-71
2022/10/11 01:48:58;;;;;;;5.60;2.97;;;16.80;98.90;;;17.15;67.20;99195.31;4955238;28;113678;-70
2022/10/11 01:51:31;;;;;;;5.27;2.73;;;16.70;99.00;;;17.17;66.93;99190.22;4958027;28;124092;-70
2022/10/11 01:54:09;;;;;;;11.97;4.23;;;16.70;99.00;;;17.18;66.91;99193.81;4949887;28;123464;-70
2022/10/11 01:57:00;;;;;;;9.23;3.00;;;16.70;99.00;;;17.15;66.86;99192.53;4958700;28;115054;-71
2022/10/11 02:00:13;;;;;;;6.07;2.87;;;16.70;98.90;;;17.13;66.72;99199.63;4970132;28;114474;-71
2022/10/11 02:03:14;;;;;;;6.17;3.23;;;16.70;98.90;;;17.13;66.67;99188.44;4963024;28;123971;-72
2022/10/11 02:05:59;;;;;;;3.80;2.70;;;16.70;98.90;;;17.14;67.05;99196.50;4967162;28;123900;-72
2022/10/11 02:08:41;;;;;;;5.90;3.30;;;16.70;99.00;;;17.14;66.79;99190.91;4971219;28;114173;-71
2022/10/11 02:11:17;;;;;;;6.97;3.73;;;16.70;98.90;;;17.12;66.94;99187.63;4968282;28;113994;-72
2022/10/11 02:13:55;;;;;;;7.47;3.20;;;16.70;99.00;;;17.11;67.08;99191.56;4967451;28;123712;-69
2022/10/11 02:16:30;;;;;;;5.33;2.80;;;16.70;99.00;;;17.13;66.83;99186.47;4953202;28;121843;-71
2022/10/11 02:18:58;;;;;;;6.17;3.30;;;16.80;99.00;;;17.14;67.05;99193.69;4966263;28;113393;-72
2022/10/11 02:21:28;;;;;;;6.00;2.80;;;16.70;99.00;;;17.14;67.05;99184.47;4965654;28;113491;-72
2022/10/11 02:24:20;;;;;;;6.70;3.00;;;16.70;99.00;;;17.15;66.83;99195.31;4958824;28;124526;-71
2022/10/11 02:26:53;;;;;;;8.90;3.47;;;16.70;99.10;;;17.16;66.96;99194.13;4966513;28;123898;-71
2022/10/11 02:29:22;;;;;;;6.83;3.33;;;16.70;99.10;;;17.17;67.14;99204.16;4965742;28;114903;-72
2022/10/11 02:31:50;;;;;;;5.20;2.60;;;16.70;99.10;;;17.18;66.92;99197.41;4967590;28;114744;-70
2022/10/11 02:34:26;;;;;;;6.37;3.30;;;16.70;99.10;;;17.20;67.10;99203.47;4965085;28;124627;-71
2022/10/11 02:37:09;;;;;;;5.03;3.20;;;16.80;99.20;;;17.21;66.85;99195.91;4965862;28;123821;-70
2022/10/11 02:39:54;;;;;;;6.83;3.87;;;16.90;99.20;;;17.19;67.14;99199.06;4960280;28;114138;-72
2022/10/11 02:42:32;;;;;;;8.20;3.40;;;16.70;99.20;;;17.21;67.04;99204.28;4971599;28;114037;-71
2022/10/11 02:45:08;;;;;;;6.20;3.13;;;16.70;99.10;;;17.22;67.09;99208.69;4968499;28;124550;-71
2022/10/11 02:47:34;;;;;;;6.20;3.67;;;16.80;99.20;;;17.22;67.02;99209.53;4969400;28;123825;-72
2022/10/11 02:50:02;;;;;;;9.27;3.60;;;16.90;99.30;;;17.23;67.00;99208.34;4967637;28;114961;-72
2022/10/11 02:52:28;;;;;;;5.70;3.10;;;16.70;99.20;;;17.24;66.97;99200.78;4973867;28;114896;-71
2022/10/11 02:54:55;;;;;;;4.63;3.50;;;16.90;99.30;;;17.26;67.14;99204.06;4958671;28;125095;-72
2022/10/11 02:57:24;;;;;;;7.73;3.30;;;16.80;99.30;;;17.26;66.98;99204.06;4956937;28;123578;-71
2022/10/11 02:59:50;;;;;;;9.30;4.87;;;16.70;99.20;;;17.25;67.23;99205.22;4970161;28;116062;-73
2022/10/11 03:02:17;;;;;;;8.13;3.30;;;16.80;99.30;;;17.25;67.25;99209.97;4970697;28;114295;-72
2022/10/11 03:04:43;;;;;;;9.07;3.40;;;16.80;99.30;;;17.26;67.24;99208.84;4960323;28;124019;-72
2022/10/11 03:07:10;;;;;;;10.73;5.40;;;16.80;99.40;;;17.25;67.30;99210.81;4960648;28;124002;-72
2022/10/11 03:09:36;;;;;;;11.97;4.70;;;16.80;99.40;;;17.27;67.24;99218.84;4956881;28;114314;-71
2022/10/11 03:12:03;;;;;;;8.60;4.40;;;16.80;99.50;;;17.29;67.31;99219.31;4973336;28;113844;-71
2022/10/11 03:14:33;;;;;;;13.63;5.37;;;16.80;99.50;;;17.30;67.44;99212.53;4970967;28;123745;-72
2022/10/11 03:16:59;;;;;;;10.50;4.50;;;16.80;99.50;;;17.32;67.31;99213.84;4968644;28;124512;-71
2022/10/11 03:19:25;;;;;;;8.30;4.70;;;16.90;99.60;;;17.33;67.40;99215.47;4969762;28;114432;-72
2022/10/11 03:21:52;;;;;;;8.50;4.37;;;16.80;99.60;;;17.36;67.45;99219.56;4971527;28;114032;-71
2022/10/11 03:24:18;;;;;;;7.67;4.53;;;16.80;99.60;;;17.37;67.52;99215.59;4967351;28;124597;-72
2022/10/11 03:26:45;;;;;;;11.90;6.10;;;16.80;99.60;;;17.38;67.35;99220.00;4968595;28;123797;-71
2022/10/11 03:29:11;;;;;;;10.10;5.57;;;16.80;99.60;;;17.37;67.21;99218.38;4968407;28;114001;-72
2022/10/11 03:31:38;;;;;;;7.57;4.93;;;16.90;99.60;;;17.36;67.58;99231.53;4961283;28;113867;-72
2022/10/11 03:34:04;;;;;;;11.53;4.63;;;16.90;99.60;;;17.36;67.44;99237.13;4965953;28;124064;-71
2022/10/11 03:36:31;;;;;;;6.17;4.13;;;16.90;99.60;;;17.37;67.36;99230.38;4968448;28;123889;-71
2022/10/11 03:38:59;;;;;;;11.50;5.20;;;16.90;99.60;;;17.38;67.48;99231.19;4969044;28;115312;-71
2022/10/11 03:41:25;;;;;;;14.30;4.33;;;17.00;99.60;;;17.38;67.34;99228.38;4954524;28;114209;-70
2022/10/11 03:43:52;;;;;;;8.73;5.00;;;16.90;99.60;;;17.38;67.51;99223.63;4968759;28;124277;-70
2022/10/11 03:46:18;;;;;;;6.80;4.47;;;16.90;99.60;;;17.40;67.32;99231.66;4969629;28;122734;-70
2022/10/11 03:48:45;;;;;;;11.00;5.00;;;16.90;99.60;;;17.41;67.40;99233.31;4969145;28;114987;-70
2022/10/11 03:51:12;;;;;;;11.77;5.43;;;16.90;99.60;;;17.42;67.55;99241.31;4970777;28;113547;-70
2022/10/11 03:53:38;;;;;;;11.37;6.40;;;17.00;99.70;;;17.43;67.46;99233.75;4966738;28;124522;-70
2022/10/11 03:56:05;;;;;;;15.63;6.03;;;17.00;99.70;;;17.42;67.38;99238.53;4958743;28;122818;-70
2022/10/11 03:58:32;;;;;;;14.10;7.00;;;16.90;99.60;;;17.41;67.44;99236.91;4972667;28;114600;-71
2022/10/11 04:00:58;;;;;;;8.70;5.97;;;16.90;99.60;;;17.39;67.52;99235.63;4965918;28;114137;-70
2022/10/11 04:03:25;;;;;;;11.30;6.80;;;16.90;99.60;;;17.38;67.27;99233.97;4952598;28;123942;-71
2022/10/11 04:05:52;;;;;;;18.13;7.47;;;16.90;99.60;;;17.37;67.18;99251.91;4952884;28;123887;-70
2022/10/11 04:08:18;;;;;;;14.50;7.00;;;16.90;99.60;;;17.32;67.41;99244.56;4956067;28;114843;-70
2022/10/11 04:10:44;;;;;;;12.60;7.30;;;16.90;99.60;;;17.30;67.53;99246.06;4949049;28;113351;-71
2022/10/11 04:13:11;;;;;;;19.93;8.87;;;16.80;99.60;;;17.27;67.58;99255.13;4952545;28;123899;-71
2022/10/11 04:15:38;;;;;;;18.70;8.27;;;16.80;99.60;;;17.24;67.63;99259.44;4952950;28;124200;-70
2022/10/11 04:18:05;;;;;;;13.13;6.50;;;16.80;99.60;;;17.21;67.60;99252.56;4954632;28;114128;-70
2022/10/11 04:20:32;;;;;;;14.03;8.13;;;16.80;99.60;;;17.20;67.70;99258.50;4949646;28;114437;-71
2022/10/11 04:22:59;;;;;;;20.63;8.03;;;16.80;99.70;;;17.18;67.74;99260.81;4952362;28;123240;-70
2022/10/11 04:25:26;;;;;;;21.60;9.03;;;16.70;99.60;;;17.14;67.83;99259.88;4951404;28;124341;-70
2022/10/11 04:27:52;;;;;;;18.43;9.73;;;16.70;99.70;;;17.10;67.90;99259.75;4950043;28;115194;-71
2022/10/11 04:30:20;;;;;;;23.50;9.20;;;16.70;99.70;;;17.09;67.93;99262.91;4949832;28;115089;-70
2022/10/11 04:32:46;;;;;;;23.73;8.83;;;16.70;99.70;;;17.08;67.92;99264.84;4959859;28;125812;-70
2022/10/11 04:35:13;;;;;;;14.60;8.87;;;16.70;99.70;;;17.06;67.89;99266.34;4949397;28;123780;-70
2022/10/11 04:37:39;;;;;;;15.73;9.00;;;16.60;99.70;;;17.03;67.91;99256.69;4951561;28;113610;-71
2022/10/11 04:40:07;;;;;;;17.70;8.90;;;16.60;99.70;;;17.02;68.15;99260.66;4948805;28;113944;-71
2022/10/11 04:42:34;;;;;;;21.83;7.70;;;16.60;99.80;;;17.03;68.14;99267.88;4951277;28;123996;-71
2022/10/11 04:45:01;;;;;;;15.40;8.40;;;16.60;99.80;;;17.03;68.18;99256.69;4948755;28;124054;-70
2022/10/11 04:47:27;;;;;;;15.63;8.13;;;16.60;99.90;;;17.04;68.28;99258.34;4960445;28;114230;-70
2022/10/11 04:49:54;;;;;;;17.90;8.10;;;16.60;99.90;;;17.06;68.05;99272.78;4960864;28;114030;-70
2022/10/11 04:52:20;;;;;;;19.57;9.17;;;16.60;99.90;;;17.06;68.11;99267.19;4963817;28;123031;-71
2022/10/11 04:54:47;;;;;;;17.03;8.90;;;16.60;99.90;;;17.05;68.08;99276.72;4951174;28;123901;-70
2022/10/11 04:57:13;;;;;;;18.03;9.17;;;16.60;99.90;;;17.05;68.11;99275.91;4961834;28;114637;-70
2022/10/11 04:59:40;;;;;;;19.57;8.33;;;17.00;99.90;;;17.03;68.14;99279.03;4949674;28;114084;-70
2022/10/11 05:02:06;;;;;;;25.17;10.10;;;16.60;99.90;;;17.02;67.97;99277.41;4959322;28;124441;-69
2022/10/11 05:04:32;;;;;;;16.03;9.57;;;17.50;99.90;;;16.99;68.09;99278.91;4950038;28;123842;-71
2022/10/11 05:06:59;;;;;;;22.80;9.70;;;16.50;99.90;;;16.97;68.11;99286.81;4943680;28;114352;-72
2022/10/11 05:09:26;;;;;;;18.27;9.13;;;15.50;99.50;;;16.98;68.20;99282.06;4962574;28;113574;-73
2022/10/11 05:11:52;;;;;;;18.57;9.80;;;16.50;99.90;;;16.98;68.26;99287.66;4951193;28;124027;-73
2022/10/11 05:14:18;;;;;;;16.03;9.50;;;16.50;99.90;;;16.99;68.45;99289.25;4951792;28;123677;-70
2022/10/11 05:16:45;;;;;;;21.80;11.77;;;16.60;99.90;;;16.97;68.15;99291.59;4958194;28;115189;-70
2022/10/11 05:19:11;;;;;;;17.70;11.70;;;16.50;99.90;;;16.93;68.28;99285.06;4965585;28;114933;-73
2022/10/11 05:21:38;;;;;;;19.07;10.20;;;16.50;99.90;;;16.91;68.52;99293.78;4967765;28;123985;-73
2022/10/11 05:24:05;;;;;;;17.07;10.27;;;16.50;99.90;;;16.92;68.39;99294.59;4953167;28;123340;-73
2022/10/11 05:26:32;;;;;;;15.03;8.40;;;16.50;99.90;;;16.91;68.55;99292.97;4970158;28;114284;-76
2022/10/11 05:28:59;;;;;;;25.60;11.00;;;16.40;99.90;;;16.94;68.34;99297.84;4967490;28;113948;-73
2022/10/11 05:31:26;;;;;;;12.90;8.40;;;16.50;99.90;;;16.95;68.39;99300.31;4969103;28;124295;-73
2022/10/11 05:33:52;;;;;;;19.70;10.50;;;16.50;99.90;;;16.95;68.23;99299.47;4955383;28;124155;-73
2022/10/11 05:36:19;;;;;;;18.00;8.50;;;16.50;99.90;;;16.94;68.37;99314.59;4957696;28;114201;-72
2022/10/11 05:38:46;;;;;;;23.80;9.90;;;16.50;99.90;;;16.97;68.44;99306.34;4964082;28;113960;-73
2022/10/11 05:41:14;;;;;;;19.57;9.97;;;16.50;99.90;;;16.99;68.42;99306.03;4965745;28;123777;-73
2022/10/11 05:43:43;;;;;;;21.53;9.00;;;16.50;99.90;;;17.01;68.24;99317.66;4964948;28;123904;-73
2022/10/11 05:46:09;;;;;;;19.33;10.57;;;16.60;99.90;;;16.99;68.46;99306.81;4953648;28;114310;-72
2022/10/11 05:48:36;;;;;;;18.60;10.03;;;16.50;99.90;;;17.02;68.41;99321.25;4949690;28;113824;-72
2022/10/11 05:51:06;;;;;;;14.53;8.47;;;16.50;99.90;;;17.04;68.33;99325.34;4961818;28;125508;-72
2022/10/11 05:53:33;;;;;;;16.23;8.03;;;16.50;99.90;;;17.07;68.16;99318.25;4948515;28;123967;-72
2022/10/11 05:55:59;;;;;;;20.27;9.50;;;16.60;99.90;;;17.06;68.21;99328.63;4962288;28;113421;-72
2022/10/11 05:58:26;;;;;;;14.00;8.93;;;16.60;99.90;;;17.08;68.20;99329.06;4966411;28;114031;-73
2022/10/11 06:00:55;;;;;;;13.00;8.23;;;16.50;99.90;;;17.07;68.12;99327.44;4964402;28;124659;-73
2022/10/11 06:03:22;;;;;;;18.20;8.97;;;16.60;99.90;;;17.06;68.03;99334.22;4962855;28;124128;-74
2022/10/11 06:05:48;;;;;;;20.60;10.53;;;16.60;99.90;;;17.05;68.08;99343.72;4959318;28;115363;-73
2022/10/11 06:08:16;;;;;;;18.70;10.53;;;16.60;99.90;;;17.06;67.93;99341.75;4961766;28;114954;-71
2022/10/11 06:10:43;;;;;;;15.00;9.30;;;16.50;99.90;;;17.08;68.08;99343.03;4962261;28;124079;-72
2022/10/11 06:13:10;;;;;;;22.40;10.13;;;16.60;99.90;;;17.10;68.03;99346.31;4965119;28;124681;-71
2022/10/11 06:15:38;;;;;;;17.87;8.67;;;16.70;99.90;;;17.10;67.76;99351.06;4964613;28;114231;-70
2022/10/11 06:18:05;;;;;;;15.73;8.83;;;16.60;99.90;;;17.09;67.91;99355.03;4963449;28;113979;-70
2022/10/11 06:20:32;;;;;;;16.80;7.70;;;16.60;99.90;;;17.08;67.98;99348.63;4959110;28;124129;-71
2022/10/11 06:22:58;;;;;;;16.20;9.90;;;16.60;99.90;;;17.09;67.67;99352.25;4960051;28;123885;-70
2022/10/11 06:25:25;;;;;;;18.50;10.40;;;16.60;99.90;;;17.07;67.68;99358.16;4959307;28;114071;-70
2022/10/11 06:27:51;;;;;;;23.63;9.13;;;16.60;99.90;;;17.04;67.86;99350.47;4953962;28;113872;-71
2022/10/11 06:30:18;;;;;;;17.77;9.23;;;16.50;99.90;;;17.02;67.81;99357.56;4947086;28;124083;-70
2022/10/11 06:32:44;;;;;;;12.97;8.10;;;16.50;99.90;;;17.00;67.74;99357.88;4948610;28;123909;-70
2022/10/11 06:35:11;;;;;;;13.50;7.87;;;16.50;99.90;;;16.98;67.82;99358.25;4947162;28;114786;-70
2022/10/11 06:37:37;;;;;;;18.97;8.47;;;16.50;99.90;;;17.00;67.74;99363.47;4946541;28;113970;-71
2022/10/11 06:40:04;;;;;;;22.40;9.63;;;16.50;99.90;;;16.99;67.86;99359.88;4947271;28;124693;-70
2022/10/11 06:42:31;;;;;;;19.60;9.30;;;16.50;99.80;;;17.00;67.62;99369.06;4948754;28;123447;-71
2022/10/11 06:44:57;;;;;;;13.50;8.00;;;16.50;99.90;;;16.99;67.57;99371.03;4949748;28;113692;-71
2022/10/11 06:47:24;;;;;;;14.67;7.93;;;16.50;99.80;;;16.98;67.55;99371.41;4947088;28;115155;-70
2022/10/11 06:49:50;;;;;;;16.27;8.73;;;16.50;99.80;;;16.99;67.62;99373.00;4949769;28;124047;-71
2022/10/11 06:52:17;;;;;;;15.13;7.43;;;16.50;99.80;;;17.01;67.43;99381.88;4951929;28;122791;-70
2022/10/11 06:54:44;;;;;;;22.00;10.07;;;16.50;99.80;;;17.03;67.48;99378.72;4952629;28;115327;-70
2022/10/11 06:57:11;;;;;;;15.27;7.67;;;16.50;99.80;;;17.06;67.48;99386.41;4968329;28;115032;-70
2022/10/11 06:59:37;;;;;;;13.73;8.10;;;16.50;99.80;;;17.06;67.50;99378.88;4969215;28;124040;-70
2022/10/11 07:02:04;;;;;;;18.40;9.10;;;16.50;99.70;;;17.07;67.13;99379.69;4968797;28;123178;-71
2022/10/11 07:04:32;;;;;;;14.43;8.20;;;16.50;99.70;;;17.06;67.22;99378.88;4953414;28;113538;-71
2022/10/11 07:06:59;;;;;;;12.10;7.60;;;16.50;99.60;;;17.04;67.21;99389.56;4969251;28;113628;-70
2022/10/11 07:09:25;;;;;;;14.90;7.40;;;16.50;99.60;;;17.05;67.20;99402.34;4964799;28;123926;-72
2022/10/11 07:11:51;;;;;;;13.33;7.97;;;16.60;99.60;;;17.08;67.09;99404.47;4968825;28;123843;-70
2022/10/11 07:14:18;;;;;;;14.30;7.67;;;16.60;99.60;;;17.09;67.09;99399.72;4967349;28;114654;-70
2022/10/11 07:16:45;;;;;;;17.17;8.60;;;16.60;99.50;;;17.12;67.08;99413.81;4967095;28;113928;-71
2022/10/11 07:19:11;;;;;;;15.33;7.40;;;16.60;99.50;;;17.11;66.82;99403.78;4966301;28;123984;-71
2022/10/11 07:21:38;;;;;;;14.37;8.43;;;16.50;99.50;;;17.11;67.05;99406.56;4957996;28;123931;-71
2022/10/11 07:24:05;;;;;;;12.77;7.50;;;16.60;99.50;;;17.13;67.04;99421.00;4954253;28;114319;-70
2022/10/11 07:26:32;;;;;;;12.00;6.90;;;16.60;99.50;;;17.13;66.79;99421.00;4964175;28;114401;-70
2022/10/11 07:28:58;;;;;;;13.50;7.33;;;16.70;99.50;;;17.15;66.86;99424.28;4963515;28;124928;-71
2022/10/11 07:31:25;;;;;;;10.30;6.90;;;16.60;99.80;;;17.19;66.95;99422.47;4957173;28;123909;-70
2022/10/11 07:33:52;;;;;;;14.33;7.60;;;16.70;99.50;;;17.21;66.68;99430.47;4969609;28;114750;-70
2022/10/11 07:36:21;;;;;;;16.80;9.20;;;16.70;99.50;;;17.21;66.94;99425.69;4965063;28;113857;-70
2022/10/11 07:38:49;;;;;;;13.23;8.13;;;16.70;99.50;;;17.20;66.94;99426.88;4965551;28;125049;-70
2022/10/11 07:41:16;;;;;;;15.00;7.47;;;16.80;99.50;;;17.18;66.81;99415.22;4967399;28;125049;-70
2022/10/11 07:43:42;;;;;;;18.10;9.80;;;16.70;99.40;;;17.17;67.02;99421.97;4967650;28;115267;-70
2022/10/11 07:46:10;;;;;;;13.50;9.20;;;16.60;99.40;;;17.17;67.14;99421.97;4966586;28;115032;-70
2022/10/11 07:48:37;;;;;;;14.40;8.17;;;16.70;99.50;;;17.17;67.00;99424.78;4970358;28;124261;-70
2022/10/11 07:51:20;;;;;;;18.23;8.10;;;16.70;99.50;;;17.17;67.14;99426.75;4955942;28;124264;-70
2022/10/11 07:53:52;;;;;;;15.80;8.43;;;16.80;99.60;;;17.19;67.05;99428.03;4970043;28;115262;-70
2022/10/11 07:56:25;;;;;;;24.30;9.60;;;16.70;99.50;;;17.20;67.21;99428.84;4949570;28;113937;-70
2022/10/11 07:58:58;;;;;;;19.90;8.23;;;16.70;99.60;;;17.20;67.04;99429.66;4954976;28;124122;-84
2022/10/11 08:01:27;;;;;;;16.30;9.40;;;16.70;99.60;;;17.21;67.19;99425.69;4963533;28;123459;-70
2022/10/11 08:03:55;;;;;;;22.03;10.07;;;16.70;99.60;;;17.22;67.08;99437.69;4964756;28;114406;-70
2022/10/11 08:06:28;;;;;;;12.67;8.50;;;16.70;99.50;;;17.21;67.10;99431.28;4951457;28;113348;-70
2022/10/11 08:08:56;;;;;;;17.63;9.20;;;16.70;99.50;;;17.23;67.10;99428.16;4961265;28;124001;-70
2022/10/11 08:11:28;;;;;;;13.23;7.53;;;16.70;99.50;;;17.25;67.18;99433.38;4956604;28;122746;-70
2022/10/11 08:13:55;;;;;;;16.03;10.13;;;16.80;99.60;;;17.27;66.83;99445.03;4962333;28;114778;-70
2022/10/11 08:16:22;;;;;;;22.60;10.13;;;16.70;99.50;;;17.26;66.82;99432.25;4958134;28;113757;-70
2022/10/11 08:18:49;;;;;;;13.10;7.70;;;16.80;99.40;;;17.25;66.74;99431.44;4961924;28;124075;-70
2022/10/11 08:21:17;;;;;;;19.90;9.33;;;16.70;99.40;;;17.24;66.90;99429.78;4966902;28;124080;-70
2022/10/11 08:23:44;;;;;;;16.90;7.90;;;16.70;99.40;;;17.25;66.89;99433.38;4960497;28;114302;-70
2022/10/11 08:26:11;;;;;;;19.73;8.67;;;16.70;99.40;;;17.25;66.73;99436.19;4964431;28;114077;-70
2022/10/11 08:28:37;;;;;;;13.37;8.33;;;16.70;99.40;;;17.23;66.75;99437.34;4968426;28;125537;-70
2022/10/11 08:31:04;;;;;;;15.43;8.20;;;16.80;99.40;;;17.23;66.87;99445.72;4952660;28;124097;-70
2022/10/11 08:33:31;;;;;;;23.43;12.20;;;16.70;99.40;;;17.21;66.89;99444.44;4961504;28;115591;-71
2022/10/11 08:35:57;;;;;;;19.40;9.27;;;16.70;99.40;;;17.20;66.56;99449.22;4960253;28;115283;-70
2022/10/11 08:38:24;;;;;;;16.00;9.20;;;16.70;99.50;;;17.21;67.00;99450.84;4966890;28;124033;-71
2022/10/11 08:40:54;;;;;;;14.60;9.40;;;16.70;99.50;;;17.25;66.94;99444.56;4959582;28;124906;-70
2022/10/11 08:43:28;;;;;;;12.67;7.80;;;18.00;99.90;;;17.27;66.78;99445.03;4969126;28;114338;-69
2022/10/11 08:45:59;;;;;;;23.17;11.03;;;16.70;99.50;;;17.28;67.02;99444.72;4958538;28;113813;-70
2022/10/11 08:48:36;;;;;;;23.13;10.50;;;16.80;99.80;;;17.29;66.83;99442.75;4968952;28;123984;-70
2022/10/11 08:51:24;;;;;;;15.93;9.67;;;16.70;99.50;;;17.28;66.76;99446.69;4960041;28;124145;-70
2022/10/11 08:54:05;;;;;;;16.57;9.90;;;16.70;99.50;;;17.25;66.55;99447.34;4966744;28;114244;-70
2022/10/11 08:56:37;;;;;;;16.43;9.00;;;16.70;99.50;;;17.25;66.85;99448.19;4965190;28;114181;-70
2022/10/11 08:59:23;;;;;;;17.53;9.73;;;16.70;99.50;;;17.25;66.87;99448.19;4967340;28;124420;-70
2022/10/11 09:02:17;;;;;;;19.63;8.83;;;16.80;99.50;;;17.28;66.76;99446.69;4956888;28;124069;-69
2022/10/11 09:04:46;;;;;;;13.53;9.27;;;17.40;99.70;;;17.27;66.73;99450.63;4960893;28;114370;-69
2022/10/11 09:08:01;;;;;;;23.03;9.53;;;16.70;99.40;;;17.26;66.64;99444.25;4954123;28;114445;-69
2022/10/11 09:10:58;;;;;;;36.00;12.37;;;16.80;99.40;;;17.23;66.60;99448.53;4955632;28;124194;-70
2022/10/11 09:14:05;;;;;;;15.77;10.60;;;16.70;99.40;;;17.22;66.72;99452.50;4960862;28;123646;-69
2022/10/11 09:17:17;;;;;;;23.27;9.90;;;16.70;99.40;;;17.22;66.67;99448.84;4955369;28;114128;-70
2022/10/11 09:20:01;;;;;;;14.87;8.90;;;16.70;99.40;;;17.22;66.80;99455.28;4966784;28;114185;-69
2022/10/11 09:22:36;;;;;;;13.40;7.80;;;16.70;99.30;;;17.25;66.57;99451.00;4956764;28;123038;-70
2022/10/11 09:25:24;;;;;;;15.23;10.90;;;16.70;99.30;;;17.27;66.54;99456.22;4966285;28;123104;-71
2022/10/11 09:28:09;;;;;;;19.03;8.67;;;16.80;99.30;;;17.30;66.62;99452.75;4964638;28;115049;-71
2022/10/11 09:30:46;;;;;;;30.90;13.20;;;16.80;99.30;;;17.29;66.30;99454.72;4959780;28;115282;-71
2022/10/11 09:33:44;;;;;;;20.23;10.63;;;16.70;99.20;;;17.24;66.44;99452.13;4955016;28;124100;-70
2022/10/11 09:36:38;;;;;;;21.20;10.50;;;16.80;99.30;;;17.25;66.31;99447.34;4966487;28;124245;-70
2022/10/11 09:39:30;;;;;;;19.77;10.93;;;16.70;99.30;;;17.26;66.39;99449.00;4958330;28;114273;-70
2022/10/11 09:42:09;;;;;;;14.57;10.13;;;16.70;99.30;;;17.26;66.42;99454.59;4939553;28;113494;-70
2022/10/11 09:44:45;;;;;;;18.80;9.00;;;16.70;99.30;;;17.29;66.33;99454.72;4957775;28;124556;-70
2022/10/11 09:47:25;;;;;;;18.53;9.53;;;16.70;99.20;;;17.34;66.30;99459.28;4969573;28;123404;-69
2022/10/11 09:50:10;;;;;;;15.57;10.37;;;16.80;99.20;;;17.36;66.13;99455.00;4954744;28;114447;-70
2022/10/11 09:52:48;;;;;;;20.87;11.50;;;16.80;99.20;;;17.38;66.15;99463.88;4966584;28;114513;-70
2022/10/11 09:55:42;;;;;;;24.27;11.30;;;16.80;99.10;;;17.39;65.98;99459.09;4952387;28;124075;-69
2022/10/11 09:58:30;;;;;;;16.93;10.27;;;16.90;99.10;;;17.43;66.00;99465.59;4958156;28;123252;-70
2022/10/11 10:01:01;;;;;;;15.00;8.73;;;16.90;99.10;;;17.45;66.26;99460.50;4966634;28;114541;-69
2022/10/11 10:03:32;;;;;;;15.07;8.93;;;16.90;99.10;;;17.49;66.00;99457.84;4964318;28;114074;-70
2022/10/11 10:06:15;;;;;;;20.53;11.33;;;16.90;99.00;;;17.55;65.77;99456.47;4951309;28;124642;-69
2022/10/11 10:08:42;;;;;;;24.30;10.00;;;17.00;99.00;;;17.54;65.66;99452.84;4958057;28;123929;-70
2022/10/11 10:11:10;;;;;;;26.97;11.40;;;17.00;98.90;;;17.53;65.79;99456.81;4965548;28;115053;-69
2022/10/11 10:13:50;;;;;;;22.03;10.60;;;17.00;98.90;;;17.54;65.42;99458.44;4968914;28;114811;-70
2022/10/11 10:16:26;;;;;;;17.90;10.40;;;17.00;98.80;;;17.52;65.40;99455.19;4954113;28;124086;-69
2022/10/11 10:19:06;;;;;;;25.60;11.47;;;17.00;98.80;;;17.50;65.33;99457.50;4965445;28;123948;-69
2022/10/11 10:21:44;;;;;;;22.90;12.20;;;17.00;98.70;;;17.48;65.32;99457.03;4962028;28;114297;-69
2022/10/11 10:24:37;;;;;;;23.33;11.63;;;16.90;98.70;;;17.48;65.33;99448.63;4946826;28;114375;-69
2022/10/11 10:27:20;;;;;;;24.30;11.10;;;16.90;98.70;;;17.52;65.40;99449.59;4955469;28;123879;-71
2022/10/11 10:30:08;;;;;;;28.83;11.40;;;17.00;98.70;;;17.54;65.30;99461.22;4957391;28;124022;-70